Time;durP1;ratioP1;P1;durP2;ratioP2;P2;SDS_P1;SDS_P2;PMS_P1;PMS_P2;Temp;Humidity;BMP_temperature;BMP_pressure;BME280_temperature;BME280_humidity;BME280_pressure;Samples;Min_cycle;Max_cycle;Signal;HPM_P1;HPM_P2
2021/01/25 00:02:04;;;;;;;29.40;13.30;;;2.50;99.90;;;;;;4942539;29;20052;-80
2021/01/25 00:04:32;;;;;;;27.90;13.17;;;2.50;99.90;;;;;;4942869;29;20479;-79
2021/01/25 00:07:00;;;;;;;28.75;13.60;;;2.50;99.90;;;;;;4959768;28;20055;-79
2021/01/25 00:09:27;;;;;;;28.10;13.60;;;2.40;99.90;;;;;;4942612;29;20479;-79
2021/01/25 00:11:56;;;;;;;34.40;13.60;;;2.40;99.90;;;;;;4940518;29;20091;-79
2021/01/25 00:14:28;;;;;;;29.77;13.03;;;2.30;99.90;;;;;;4940704;29;20059;-78
2021/01/25 00:16:57;;;;;;;27.37;13.10;;;2.40;99.90;;;;;;4923536;29;20075;-79
2021/01/25 00:19:25;;;;;;;28.83;13.50;;;2.40;99.90;;;;;;4941504;29;20066;-78
2021/01/25 00:21:54;;;;;;;26.00;12.87;;;2.40;99.90;;;;;;4942818;29;20047;-80
2021/01/25 00:24:24;;;;;;;24.33;11.67;;;2.30;99.90;;;;;;4926913;29;20043;-80
2021/01/25 00:26:53;;;;;;;25.20;11.63;;;2.30;99.90;;;;;;4944403;29;20068;-79
2021/01/25 00:29:22;;;;;;;27.70;12.60;;;2.30;99.90;;;;;;4943505;29;20067;-79
2021/01/25 00:31:49;;;;;;;26.65;11.68;;;2.20;99.90;;;;;;4959406;29;20062;-79
2021/01/25 00:34:17;;;;;;;24.60;10.57;;;2.20;99.90;;;;;;4942372;29;20051;-79
2021/01/25 00:36:44;;;;;;;24.00;9.87;;;2.20;99.90;;;;;;4945511;29;20047;-79
2021/01/25 00:39:12;;;;;;;25.30;11.70;;;2.10;99.90;;;;;;4944601;29;20399;-80
2021/01/25 00:41:39;;;;;;;25.93;10.87;;;2.00;99.90;;;;;;4946862;29;20070;-79
2021/01/25 00:44:06;;;;;;;23.27;9.80;;;2.00;99.90;;;;;;4946166;29;20055;-80
2021/01/25 00:46:35;;;;;;;26.77;11.97;;;2.00;99.90;;;;;;4946652;29;20070;-80
2021/01/25 00:49:06;;;;;;;22.47;10.50;;;2.00;99.90;;;;;;4930969;29;20074;-80
2021/01/25 00:51:34;;;;;;;24.50;9.87;;;1.90;99.90;;;;;;4946607;29;20059;-80
2021/01/25 00:54:01;;;;;;;22.83;10.63;;;1.90;99.90;;;;;;4962611;28;20074;-80
2021/01/25 00:56:30;;;;;;;18.58;9.13;;;1.90;99.90;;;;;;4945096;29;20051;-80
2021/01/25 00:58:58;;;;;;;19.53;9.03;;;2.00;99.90;;;;;;4932812;29;20063;-80
2021/01/25 01:01:29;;;;;;;21.10;9.13;;;2.00;99.90;;;;;;4947415;29;20066;-80
2021/01/25 01:03:57;;;;;;;20.40;9.23;;;2.00;99.90;;;;;;4946427;29;20056;-80
2021/01/25 01:06:24;;;;;;;19.88;7.60;;;2.00;99.90;;;;;;4946409;29;20059;-80
2021/01/25 01:08:58;;;;;;;18.80;8.13;;;2.00;99.90;;;;;;4963490;29;20056;-81
2021/01/25 01:11:31;;;;;;;18.13;8.87;;;2.00;99.90;;;;;;4963427;29;20058;-79
2021/01/25 01:13:58;;;;;;;19.07;8.33;;;2.00;99.90;;;;;;4946362;29;20055;-80
2021/01/25 01:16:28;;;;;;;19.20;7.43;;;1.90;99.90;;;;;;4944752;29;20059;-80
2021/01/25 01:18:55;;;;;;;18.63;7.90;;;1.90;99.90;;;;;;4945406;29;20083;-79
2021/01/25 01:21:24;;;;;;;14.50;6.77;;;1.80;99.90;;;;;;4945526;29;20059;-78
2021/01/25 01:23:51;;;;;;;19.77;8.95;;;1.70;99.90;;;;;;4961839;28;20052;-79
2021/01/25 01:26:19;;;;;;;16.10;7.90;;;1.70;99.90;;;;;;4962011;29;20573;-79
2021/01/25 01:28:46;;;;;;;15.20;7.00;;;1.60;99.90;;;;;;4945304;29;20055;-79
2021/01/25 01:31:14;;;;;;;16.40;7.60;;;1.50;99.90;;;;;;4945414;29;20063;-79
2021/01/25 01:33:41;;;;;;;16.77;7.20;;;1.50;99.90;;;;;;4929769;29;20062;-79
2021/01/25 01:36:10;;;;;;;17.10;8.43;;;1.50;99.90;;;;;;4949116;29;20060;-79
2021/01/25 01:38:39;;;;;;;12.43;6.37;;;1.50;99.90;;;;;;4947996;29;20059;-79
2021/01/25 01:41:06;;;;;;;14.77;7.50;;;1.50;99.90;;;;;;4946950;29;20052;-79
2021/01/25 01:43:34;;;;;;;18.60;7.90;;;1.40;99.90;;;;;;4946271;29;20058;-79
2021/01/25 01:46:02;;;;;;;12.68;5.78;;;1.40;99.90;;;;;;4962357;29;20055;-80
2021/01/25 01:48:29;;;;;;;15.33;7.23;;;1.40;99.90;;;;;;4946296;29;20060;-80
2021/01/25 01:50:57;;;;;;;14.87;6.83;;;1.40;99.90;;;;;;4959765;29;20062;-80
2021/01/25 01:53:27;;;;;;;14.03;7.20;;;1.30;99.90;;;;;;4924096;29;20379;-79
2021/01/25 01:55:55;;;;;;;14.97;6.67;;;1.30;99.90;;;;;;4939732;29;20056;-80
2021/01/25 01:58:28;;;;;;;16.03;7.57;;;1.30;99.90;;;;;;4953919;29;20052;-79
2021/01/25 02:00:58;;;;;;;13.87;6.67;;;1.20;99.90;;;;;;4959640;28;20495;-79
2021/01/25 02:03:28;;;;;;;14.80;7.13;;;1.30;99.90;;;;;;4970540;29;20063;-79
2021/01/25 02:05:56;;;;;;;13.13;6.60;;;1.10;99.90;;;;;;4946027;29;20059;-79
2021/01/25 02:08:24;;;;;;;13.65;6.57;;;1.00;99.90;;;;;;4952501;29;20058;-79
2021/01/25 02:10:57;;;;;;;13.13;6.67;;;0.80;99.90;;;;;;4943521;29;20052;-78
2021/01/25 02:13:25;;;;;;;16.00;7.60;;;0.70;99.90;;;;;;4947853;29;20063;-77
2021/01/25 02:15:53;;;;;;;16.50;7.80;;;0.50;99.90;;;;;;4929317;29;20062;-79
2021/01/25 02:18:20;;;;;;;13.23;6.97;;;0.60;99.90;;;;;;4928660;29;20056;-80
2021/01/25 02:20:50;;;;;;;16.10;6.80;;;0.50;99.90;;;;;;4959655;29;20353;-80
2021/01/25 02:23:47;;;;;;;15.03;7.30;;;0.30;99.90;;;;;;4942618;29;20059;-79
2021/01/25 02:26:28;;;;;;;16.07;6.47;;;0.50;99.90;;;;;;4939637;29;20066;-79
2021/01/25 02:28:59;;;;;;;17.47;7.17;;;0.90;99.90;;;;;;4939823;29;20059;-79
2021/01/25 02:31:31;;;;;;;14.73;7.43;;;1.10;99.90;;;;;;4939556;29;20048;-79
2021/01/25 02:33:59;;;;;;;15.67;6.97;;;1.10;99.90;;;;;;4940082;29;20059;-79
2021/01/25 02:36:30;;;;;;;14.13;7.28;;;1.00;99.90;;;;;;4924313;29;20074;-79
2021/01/25 02:39:00;;;;;;;16.23;6.67;;;1.10;99.90;;;;;;4941153;29;20055;-79
2021/01/25 02:41:28;;;;;;;15.50;7.87;;;1.00;99.90;;;;;;4944619;29;20070;-78
2021/01/25 02:43:59;;;;;;;13.82;7.35;;;1.10;99.90;;;;;;4959329;29;20048;-79
2021/01/25 02:46:28;;;;;;;15.40;7.57;;;1.10;99.90;;;;;;4943148;29;20051;-79
2021/01/25 02:48:58;;;;;;;17.53;7.57;;;1.10;99.90;;;;;;4942232;29;20060;-79
2021/01/25 02:51:25;;;;;;;14.83;7.60;;;1.10;99.90;;;;;;4937767;29;20067;-79
2021/01/25 02:53:53;;;;;;;19.17;7.60;;;1.10;99.90;;;;;;4936744;29;20051;-79
2021/01/25 02:56:23;;;;;;;22.10;8.27;;;1.10;99.90;;;;;;4936648;29;20059;-79
2021/01/25 02:58:51;;;;;;;18.73;8.37;;;1.10;99.90;;;;;;4952668;28;20066;-79
2021/01/25 03:01:19;;;;;;;15.30;7.45;;;1.10;99.90;;;;;;4921178;29;20071;-78
2021/01/25 03:03:48;;;;;;;13.85;5.88;;;1.10;99.90;;;;;;4937828;29;20067;-80
2021/01/25 03:06:19;;;;;;;14.93;6.90;;;1.00;99.90;;;;;;4954108;29;20063;-79
2021/01/25 03:08:47;;;;;;;17.58;8.50;;;1.00;99.90;;;;;;4944797;29;20052;-80
2021/01/25 03:11:19;;;;;;;20.20;8.90;;;0.90;99.90;;;;;;4945176;29;20392;-79
2021/01/25 03:13:49;;;;;;;18.20;7.97;;;1.00;99.90;;;;;;4941625;29;20064;-79
2021/01/25 03:16:17;;;;;;;20.07;8.57;;;1.00;99.90;;;;;;4942020;29;20059;-79
2021/01/25 03:18:45;;;;;;;18.30;7.57;;;1.00;99.90;;;;;;4925974;29;20059;-79
2021/01/25 03:21:12;;;;;;;21.90;8.10;;;1.00;99.90;;;;;;4941858;29;20515;-79
2021/01/25 03:23:42;;;;;;;17.77;8.67;;;1.00;99.90;;;;;;4943316;29;20063;-79
2021/01/25 03:26:09;;;;;;;18.40;7.90;;;1.00;99.90;;;;;;4942557;29;20052;-79
2021/01/25 03:28:39;;;;;;;19.33;8.70;;;1.00;99.90;;;;;;4927982;29;20392;-79
2021/01/25 03:31:08;;;;;;;17.95;8.30;;;1.10;99.90;;;;;;4943549;29;20387;-79
2021/01/25 03:33:38;;;;;;;18.50;8.77;;;1.10;99.90;;;;;;4928157;29;20491;-79
2021/01/25 03:36:07;;;;;;;18.63;8.10;;;1.10;99.90;;;;;;4943067;29;20060;-79
2021/01/25 03:38:34;;;;;;;;;;;1.10;99.90;;;;;;4943262;29;20128;-79
2021/01/25 03:41:03;;;;;;;20.58;7.10;;;1.10;99.90;;;;;;4956822;29;19922;-79
2021/01/25 03:43:30;;;;;;;15.27;6.67;;;1.10;99.90;;;;;;4924772;29;20043;-79
2021/01/25 03:45:57;;;;;;;17.27;7.60;;;1.00;99.90;;;;;;4957015;28;20051;-79
2021/01/25 03:48:25;;;;;;;17.80;7.63;;;1.00;99.90;;;;;;4945564;29;20055;-79
2021/01/25 03:50:54;;;;;;;19.87;8.60;;;0.90;99.90;;;;;;4944773;29;20059;-79
2021/01/25 03:53:25;;;;;;;18.70;7.90;;;1.00;99.90;;;;;;4940186;29;20040;-79
2021/01/25 03:55:55;;;;;;;18.50;8.07;;;0.90;99.90;;;;;;4943906;29;20066;-79
2021/01/25 03:58:23;;;;;;;17.63;7.07;;;0.90;99.90;;;;;;4959194;29;20062;-79
2021/01/25 04:00:50;;;;;;;21.87;7.87;;;0.80;99.90;;;;;;4940629;29;20399;-79
2021/01/25 04:03:18;;;;;;;20.17;8.90;;;0.70;99.90;;;;;;4940270;29;20059;-79
2021/01/25 04:05:45;;;;;;;19.60;8.53;;;0.70;99.90;;;;;;4940354;29;20056;-79
2021/01/25 04:08:13;;;;;;;19.23;8.20;;;0.70;99.90;;;;;;4941115;29;20392;-79
2021/01/25 04:10:41;;;;;;;19.00;7.57;;;0.70;99.90;;;;;;4927775;29;20052;-79
2021/01/25 04:13:09;;;;;;;15.68;6.57;;;0.70;99.90;;;;;;4942844;29;20051;-79
2021/01/25 04:15:36;;;;;;;16.27;7.17;;;0.70;99.90;;;;;;4938213;29;20059;-79
2021/01/25 04:18:04;;;;;;;25.10;8.13;;;0.70;99.90;;;;;;4938388;29;20411;-79
2021/01/25 04:20:31;;;;;;;18.07;7.23;;;0.70;99.90;;;;;;4937830;29;20056;-79
2021/01/25 04:23:01;;;;;;;19.70;8.20;;;0.70;99.90;;;;;;4954424;28;20059;-79
2021/01/25 04:25:30;;;;;;;18.37;8.13;;;0.70;99.90;;;;;;4939264;29;20466;-79
2021/01/25 04:27:58;;;;;;;19.67;7.80;;;0.60;99.90;;;;;;4941156;29;20391;-79
2021/01/25 04:30:25;;;;;;;21.35;8.85;;;0.60;99.90;;;;;;4958214;29;20066;-79
2021/01/25 04:32:55;;;;;;;23.37;9.00;;;0.70;99.90;;;;;;4938957;29;20059;-80
2021/01/25 04:35:23;;;;;;;21.97;7.93;;;0.70;99.90;;;;;;4954454;29;20063;-79
2021/01/25 04:37:50;;;;;;;22.63;8.53;;;0.80;99.90;;;;;;4955101;29;20373;-79
2021/01/25 04:40:17;;;;;;;17.43;7.57;;;0.80;99.90;;;;;;4922623;29;20055;-79
2021/01/25 04:42:48;;;;;;;21.03;8.70;;;0.80;99.90;;;;;;4941724;29;20055;-79
2021/01/25 04:45:16;;;;;;;19.23;7.80;;;0.90;99.90;;;;;;4957329;29;20055;-79
2021/01/25 04:47:50;;;;;;;18.67;8.07;;;0.80;99.90;;;;;;4956700;29;20059;-79
2021/01/25 04:50:18;;;;;;;20.37;8.80;;;0.80;99.90;;;;;;4925949;29;20081;-79
2021/01/25 04:52:46;;;;;;;24.97;8.63;;;0.80;99.90;;;;;;4942153;29;20059;-79
2021/01/25 04:55:15;;;;;;;21.73;8.47;;;0.90;99.90;;;;;;4941900;29;20051;-79
2021/01/25 04:57:43;;;;;;;27.35;10.70;;;0.90;99.90;;;;;;4944155;29;20055;-79
2021/01/25 05:00:14;;;;;;;19.92;8.15;;;0.90;99.90;;;;;;4942762;29;20055;-79
2021/01/25 05:02:44;;;;;;;17.10;7.83;;;0.90;99.90;;;;;;4927690;29;20063;-79
2021/01/25 05:05:12;;;;;;;20.92;8.50;;;0.90;99.90;;;;;;4943730;29;20121;-79
2021/01/25 05:07:39;;;;;;;18.03;7.60;;;0.80;99.90;;;;;;4944380;29;20066;-80
2021/01/25 05:10:08;;;;;;;24.77;7.90;;;0.90;99.90;;;;;;4945321;29;20052;-80
2021/01/25 05:12:43;;;;;;;17.58;7.15;;;0.80;99.90;;;;;;4943957;29;20141;-79
2021/01/25 05:15:12;;;;;;;21.20;9.23;;;0.80;99.90;;;;;;4944692;29;20460;-80
2021/01/25 05:17:39;;;;;;;29.15;8.73;;;0.70;99.90;;;;;;4940914;29;20055;-79
2021/01/25 05:20:09;;;;;;;21.37;8.80;;;0.60;99.90;;;;;;4941557;29;20052;-79
2021/01/25 05:22:38;;;;;;;21.27;7.67;;;0.60;99.90;;;;;;4951127;29;20070;-80
2021/01/25 05:25:09;;;;;;;25.47;8.30;;;0.50;99.90;;;;;;4924391;29;20052;-79
2021/01/25 05:27:36;;;;;;;20.13;9.23;;;0.50;99.90;;;;;;4925707;29;20059;-80
2021/01/25 05:30:08;;;;;;;20.93;7.97;;;0.60;99.90;;;;;;4943138;29;20063;-79
2021/01/25 05:32:46;;;;;;;17.97;8.03;;;0.60;99.90;;;;;;4940570;29;20391;-79
2021/01/25 05:35:16;;;;;;;18.60;7.07;;;0.60;99.90;;;;;;4923566;29;20051;-79
2021/01/25 05:37:52;;;;;;;21.30;8.37;;;0.60;99.90;;;;;;4938896;29;20062;-79
2021/01/25 05:40:22;;;;;;;20.43;8.37;;;0.50;99.90;;;;;;4938461;29;20051;-79
2021/01/25 05:42:52;;;;;;;20.90;7.60;;;0.50;99.90;;;;;;4939018;29;20051;-79
2021/01/25 05:45:23;;;;;;;21.80;7.73;;;0.50;99.90;;;;;;4954219;29;20058;-78
2021/01/25 05:47:52;;;;;;;21.08;7.85;;;0.50;99.90;;;;;;4938262;29;20063;-79
2021/01/25 05:50:29;;;;;;;22.03;8.93;;;0.50;99.90;;;;;;4939085;29;20070;-79
2021/01/25 05:53:02;;;;;;;18.83;8.03;;;0.30;99.90;;;;;;4944415;29;20051;-79
2021/01/25 05:55:30;;;;;;;25.83;9.70;;;0.20;99.90;;;;;;4943179;29;20047;-79
2021/01/25 05:57:59;;;;;;;22.83;9.07;;;0.30;99.90;;;;;;4943502;29;20054;-76
2021/01/25 06:00:27;;;;;;;22.08;8.43;;;0.30;99.90;;;;;;4949885;29;20063;-76
2021/01/25 06:02:55;;;;;;;22.65;8.15;;;0.20;99.90;;;;;;4953084;29;20059;-78
2021/01/25 06:05:38;;;;;;;22.37;8.53;;;0.30;99.90;;;;;;4950546;29;20047;-79
2021/01/25 06:08:19;;;;;;;25.13;9.37;;;0.40;99.90;;;;;;4951162;29;20062;-77
2021/01/25 06:10:58;;;;;;;23.47;9.07;;;0.40;99.90;;;;;;4949400;29;20062;-77
2021/01/25 06:13:33;;;;;;;19.63;9.10;;;0.40;99.90;;;;;;4949520;29;20068;-77
2021/01/25 06:16:02;;;;;;;26.67;8.93;;;0.40;99.90;;;;;;4946900;29;20376;-77
2021/01/25 06:18:31;;;;;;;23.05;8.45;;;0.50;99.90;;;;;;4942581;29;20063;-76
2021/01/25 06:21:06;;;;;;;25.43;9.50;;;0.50;99.90;;;;;;4965725;29;20468;-77
2021/01/25 06:23:35;;;;;;;30.77;10.67;;;0.50;99.90;;;;;;4970508;29;20064;-76
2021/01/25 06:26:02;;;;;;;24.50;9.45;;;0.50;99.90;;;;;;4957362;29;20042;-77
2021/01/25 06:28:33;;;;;;;23.67;9.13;;;0.50;99.90;;;;;;4952521;29;20059;-79
2021/01/25 06:31:03;;;;;;;20.33;7.63;;;0.50;99.90;;;;;;4946240;29;20391;-76
2021/01/25 06:33:37;;;;;;;27.50;11.00;;;0.50;99.90;;;;;;4914331;29;20488;-77
2021/01/25 06:36:09;;;;;;;21.60;8.97;;;0.40;99.90;;;;;;4944850;29;20067;-78
2021/01/25 06:38:42;;;;;;;24.97;8.70;;;0.30;99.90;;;;;;4959463;29;20063;-79
2021/01/25 06:41:14;;;;;;;22.97;9.27;;;0.30;99.90;;;;;;4961134;28;20067;-78
2021/01/25 06:43:47;;;;;;;27.30;10.17;;;0.20;99.90;;;;;;4951089;29;20070;-78
2021/01/25 06:46:22;;;;;;;20.90;8.93;;;0.20;99.90;;;;;;4950077;29;20071;-77
2021/01/25 06:48:53;;;;;;;22.37;8.30;;;0.20;99.90;;;;;;4936108;29;20059;-79
2021/01/25 06:51:23;;;;;;;23.25;8.23;;;0.30;99.90;;;;;;4966228;29;20059;-80
2021/01/25 06:53:54;;;;;;;19.97;8.27;;;0.30;99.90;;;;;;4948740;29;20047;-78
2021/01/25 06:56:21;;;;;;;;;;;0.30;99.90;;;;;;4968131;28;20070;-80
2021/01/25 06:58:51;;;;;;;18.27;7.50;;;0.30;99.90;;;;;;4933241;29;19923;-85
2021/01/25 07:01:20;;;;;;;20.37;8.17;;;0.30;99.90;;;;;;4950176;29;20062;-81
2021/01/25 07:03:51;;;;;;;;;;;0.10;99.90;;;;;;4951181;29;20055;-79
2021/01/25 07:06:21;;;;;;;19.80;8.10;;;-0.10;99.90;;;;;;4948036;29;19923;-80
2021/01/25 07:08:53;;;;;;;20.67;8.70;;;-0.10;99.90;;;;;;4949744;29;20499;-79
2021/01/25 07:11:22;;;;;;;22.20;8.57;;;0.00;99.90;;;;;;4965090;29;20518;-79
2021/01/25 07:13:50;;;;;;;16.20;7.13;;;0.00;99.90;;;;;;4950049;29;20399;-77
2021/01/25 07:16:18;;;;;;;17.23;7.43;;;0.10;99.90;;;;;;4945782;29;20055;-79
2021/01/25 07:18:49;;;;;;;17.63;7.73;;;0.20;99.90;;;;;;4948035;28;20056;-77
2021/01/25 07:21:19;;;;;;;20.73;8.23;;;0.20;99.90;;;;;;4946229;29;20051;-78
2021/01/25 07:23:50;;;;;;;19.93;7.53;;;0.10;99.90;;;;;;4949229;29;20055;-77
2021/01/25 07:26:19;;;;;;;17.87;7.37;;;0.00;99.90;;;;;;4932528;29;20063;-77
2021/01/25 07:28:46;;;;;;;20.50;7.37;;;0.00;99.90;;;;;;4954575;29;20476;-78
2021/01/25 07:31:15;;;;;;;21.40;6.93;;;-0.10;99.90;;;;;;4951795;29;20063;-78
2021/01/25 07:33:42;;;;;;;20.60;8.73;;;-0.10;99.90;;;;;;4953087;29;20057;-78
2021/01/25 07:36:12;;;;;;;18.13;7.90;;;-0.10;99.90;;;;;;4935756;29;20048;-78
2021/01/25 07:38:44;;;;;;;17.07;6.93;;;-0.20;99.90;;;;;;4950712;29;20064;-77
2021/01/25 07:41:12;;;;;;;;;;;-0.20;99.90;;;;;;4932616;29;20056;-77
2021/01/25 07:43:43;;;;;;;19.07;6.87;;;-0.30;99.90;;;;;;4947319;29;19930;-78
2021/01/25 07:46:11;;;;;;;24.73;7.90;;;-0.30;99.90;;;;;;4931914;29;20423;-77
2021/01/25 07:48:49;;;;;;;16.20;6.40;;;-0.20;99.90;;;;;;4945562;29;20056;-80
2021/01/25 07:51:20;;;;;;;21.60;8.15;;;-0.10;99.90;;;;;;4947975;29;20066;-78
2021/01/25 07:53:47;;;;;;;20.53;8.53;;;-0.10;99.90;;;;;;4947917;28;20116;-79
2021/01/25 07:56:17;;;;;;;22.50;8.90;;;-0.10;99.90;;;;;;4945686;29;20052;-79
2021/01/25 07:58:46;;;;;;;21.37;9.17;;;0.00;99.90;;;;;;4947929;28;20066;-79
2021/01/25 08:01:18;;;;;;;21.13;8.43;;;0.00;99.90;;;;;;4930588;29;20059;-79
2021/01/25 08:03:51;;;;;;;18.90;7.77;;;0.00;99.90;;;;;;4931817;29;20055;-79
2021/01/25 08:06:19;;;;;;;25.80;8.70;;;0.10;99.90;;;;;;4929237;29;20048;-79
2021/01/25 08:08:48;;;;;;;26.58;7.97;;;0.10;99.90;;;;;;4929383;29;20056;-79
2021/01/25 08:11:20;;;;;;;;;;;0.30;99.90;;;;;;4940639;29;20059;-79
2021/01/25 08:13:58;;;;;;;28.50;9.00;;;0.30;99.90;;;;;;4943922;29;19938;-79
2021/01/25 08:16:32;;;;;;;17.83;7.57;;;0.20;99.90;;;;;;4945108;29;20063;-78
2021/01/25 08:19:04;;;;;;;22.90;8.40;;;0.30;99.90;;;;;;4943271;29;20052;-79
2021/01/25 08:21:36;;;;;;;21.90;7.70;;;0.30;99.90;;;;;;4941949;29;20052;-79
2021/01/25 08:24:06;;;;;;;21.67;8.13;;;0.30;99.90;;;;;;4923985;29;20051;-77
2021/01/25 08:26:34;;;;;;;17.27;6.90;;;0.30;99.90;;;;;;4940228;29;20056;-77
2021/01/25 08:29:06;;;;;;;22.47;8.43;;;0.30;99.90;;;;;;4937739;29;20048;-78
2021/01/25 08:31:36;;;;;;;21.43;8.07;;;0.30;99.90;;;;;;4936495;29;20063;-78
2021/01/25 08:34:06;;;;;;;19.10;7.73;;;0.30;99.90;;;;;;4924275;29;20062;-79
2021/01/25 08:36:36;;;;;;;16.63;8.23;;;0.30;99.90;;;;;;4960710;29;20055;-80
2021/01/25 08:39:12;;;;;;;16.60;6.77;;;0.30;99.90;;;;;;4938858;29;20048;-79
2021/01/25 08:41:48;;;;;;;14.32;6.60;;;0.30;99.90;;;;;;4932829;29;20066;-80
2021/01/25 08:44:18;;;;;;;15.07;6.70;;;0.50;99.90;;;;;;4944791;29;20072;-77
2021/01/25 08:46:49;;;;;;;18.27;7.07;;;0.50;99.90;;;;;;4941025;29;20051;-79
2021/01/25 08:49:19;;;;;;;16.83;7.28;;;0.50;99.90;;;;;;4938568;29;20062;-76
2021/01/25 08:51:57;;;;;;;18.30;7.53;;;0.60;99.90;;;;;;4955540;29;20078;-79
2021/01/25 08:54:28;;;;;;;19.60;7.03;;;0.70;99.90;;;;;;4922401;29;20506;-78
2021/01/25 08:56:59;;;;;;;14.63;6.57;;;0.70;99.90;;;;;;4938210;29;20055;-77
2021/01/25 08:59:37;;;;;;;17.50;6.97;;;0.80;99.90;;;;;;4935999;29;20062;-78
2021/01/25 09:02:11;;;;;;;12.45;5.82;;;0.80;99.90;;;;;;4938285;29;20071;-77
2021/01/25 09:04:38;;;;;;;15.97;6.80;;;0.70;99.90;;;;;;4926824;29;20063;-77
2021/01/25 09:07:13;;;;;;;14.63;5.73;;;0.50;99.90;;;;;;4945769;29;20051;-79
2021/01/25 09:09:41;;;;;;;19.07;6.47;;;0.40;99.90;;;;;;4915261;29;20060;-78
2021/01/25 09:12:12;;;;;;;14.57;6.47;;;0.40;99.90;;;;;;4953294;29;20063;-79
2021/01/25 09:14:41;;;;;;;17.65;7.32;;;0.40;99.90;;;;;;4938314;29;20059;-77
2021/01/25 09:17:09;;;;;;;16.87;6.90;;;0.40;99.90;;;;;;4940427;29;20059;-79
2021/01/25 09:19:38;;;;;;;14.97;7.20;;;0.40;99.90;;;;;;4943913;29;20110;-77
2021/01/25 09:22:07;;;;;;;17.37;7.47;;;0.40;99.90;;;;;;4942778;29;20051;-77
2021/01/25 09:24:34;;;;;;;15.27;7.50;;;0.40;99.90;;;;;;4941657;29;20059;-79
2021/01/25 09:27:02;;;;;;;18.23;7.33;;;0.50;99.90;;;;;;4926624;29;20051;-77
2021/01/25 09:29:30;;;;;;;24.13;7.00;;;0.60;99.90;;;;;;4942996;29;20058;-77
2021/01/25 09:31:59;;;;;;;16.20;5.97;;;0.70;99.90;;;;;;4943074;29;20317;-76
2021/01/25 09:34:26;;;;;;;12.57;6.72;;;0.70;99.90;;;;;;4943300;29;20055;-76
2021/01/25 09:36:54;;;;;;;14.60;6.13;;;0.70;99.90;;;;;;4942450;29;20514;-76
2021/01/25 09:39:23;;;;;;;14.37;6.23;;;0.80;99.90;;;;;;4941668;29;20051;-76
2021/01/25 09:41:52;;;;;;;14.07;6.32;;;0.90;99.90;;;;;;4941800;29;20075;-78
2021/01/25 09:44:19;;;;;;;14.13;5.70;;;1.00;99.90;;;;;;4943614;29;20059;-77
2021/01/25 09:46:52;;;;;;;15.33;7.30;;;1.10;99.90;;;;;;4943088;29;20055;-78
2021/01/25 09:49:23;;;;;;;18.00;7.20;;;1.20;99.90;;;;;;4928664;29;20063;-77
2021/01/25 09:51:51;;;;;;;;;;;1.30;99.90;;;;;;4946370;29;20067;-77
2021/01/25 09:54:20;;;;;;;14.43;6.57;;;1.40;99.90;;;;;;4945084;29;19938;-77
2021/01/25 09:56:51;;;;;;;16.27;7.53;;;1.50;99.90;;;;;;4945305;29;20051;-78
2021/01/25 09:59:19;;;;;;;17.73;7.23;;;1.60;99.90;;;;;;4952773;29;20043;-77
2021/01/25 10:01:46;;;;;;;15.30;6.57;;;1.90;99.90;;;;;;4944041;29;20052;-79
2021/01/25 10:04:16;;;;;;;16.10;6.57;;;2.10;99.90;;;;;;4944849;28;20055;-79
2021/01/25 10:06:46;;;;;;;18.43;6.13;;;2.30;99.90;;;;;;4924105;29;20079;-76
2021/01/25 10:09:13;;;;;;;19.53;6.70;;;2.20;99.90;;;;;;4935617;29;20070;-77
2021/01/25 10:11:41;;;;;;;16.70;6.37;;;2.00;99.90;;;;;;4935518;29;20063;-76
2021/01/25 10:14:08;;;;;;;14.67;6.80;;;1.90;99.90;;;;;;4950985;29;20050;-76
2021/01/25 10:16:36;;;;;;;15.63;6.80;;;1.90;99.90;;;;;;4933203;29;20047;-80
2021/01/25 10:19:05;;;;;;;16.87;8.03;;;2.00;99.90;;;;;;4934615;29;20095;-82
2021/01/25 10:21:33;;;;;;;14.37;6.77;;;2.30;99.90;;;;;;4956793;29;20047;-83
2021/01/25 10:24:03;;;;;;;15.60;7.27;;;2.50;99.90;;;;;;4939160;29;20047;-82
2021/01/25 10:26:30;;;;;;;14.40;6.07;;;2.70;99.90;;;;;;4951490;29;20082;-82
2021/01/25 10:28:57;;;;;;;13.43;6.23;;;2.70;99.90;;;;;;4960659;29;20059;-85
2021/01/25 10:31:25;;;;;;;15.07;6.97;;;2.50;99.90;;;;;;4961009;29;20066;-84
2021/01/25 10:33:52;;;;;;;15.93;6.50;;;2.70;99.90;;;;;;4952936;29;20063;-83
2021/01/25 10:36:22;;;;;;;13.87;5.90;;;2.60;99.90;;;;;;4953705;28;20087;-80
2021/01/25 10:38:49;;;;;;;13.07;6.30;;;2.50;99.90;;;;;;4949336;29;20056;-82
2021/01/25 10:41:20;;;;;;;13.63;5.57;;;2.30;99.90;;;;;;4956253;29;20060;-82
2021/01/25 10:43:47;;;;;;;15.53;7.13;;;2.20;99.90;;;;;;4960546;29;20052;-81
2021/01/25 10:46:15;;;;;;;13.33;5.47;;;2.00;99.90;;;;;;4956591;28;20056;-80
2021/01/25 10:48:47;;;;;;;14.77;6.23;;;2.00;99.90;;;;;;4963046;28;20063;-79
2021/01/25 10:51:14;;;;;;;14.93;5.73;;;1.80;99.90;;;;;;4959138;29;20051;-79
2021/01/25 10:53:42;;;;;;;12.80;5.57;;;1.70;99.90;;;;;;4943207;29;20051;-81
2021/01/25 10:56:11;;;;;;;;;;;1.70;99.90;;;;;;4959708;28;20058;-78
2021/01/25 10:58:39;;;;;;;17.45;6.30;;;1.70;99.90;;;;;;4951302;29;19933;-79
2021/01/25 11:01:07;;;;;;;13.63;5.78;;;1.70;99.90;;;;;;4955317;29;20386;-79
2021/01/25 11:03:36;;;;;;;17.60;7.60;;;1.80;99.90;;;;;;4959844;28;20051;-82
2021/01/25 11:06:04;;;;;;;12.40;4.87;;;1.90;99.90;;;;;;4970584;28;20047;-80
2021/01/25 11:08:32;;;;;;;17.13;6.55;;;1.90;99.90;;;;;;4961803;29;20055;-83
2021/01/25 11:11:00;;;;;;;15.23;5.63;;;1.90;99.90;;;;;;4971371;28;20052;-81
2021/01/25 11:13:29;;;;;;;12.00;5.63;;;1.90;99.90;;;;;;4955159;29;20407;-79
2021/01/25 11:15:58;;;;;;;13.13;4.93;;;1.90;99.90;;;;;;4959169;29;20054;-80
2021/01/25 11:18:28;;;;;;;8.90;4.77;;;1.90;99.90;;;;;;4971200;28;20065;-79
2021/01/25 11:20:58;;;;;;;13.90;5.00;;;1.80;99.90;;;;;;4949536;29;20057;-80
2021/01/25 11:23:25;;;;;;;17.27;6.50;;;1.80;99.90;;;;;;4965423;29;20044;-78
2021/01/25 11:25:53;;;;;;;19.23;6.53;;;1.70;99.90;;;;;;4937477;29;20052;-82
2021/01/25 11:28:20;;;;;;;12.57;4.73;;;1.80;99.90;;;;;;4948534;29;20056;-79
2021/01/25 11:30:48;;;;;;;12.87;5.43;;;1.80;99.90;;;;;;4948412;29;20056;-79
2021/01/25 11:33:16;;;;;;;12.70;5.20;;;1.80;99.90;;;;;;4928795;29;20059;-79
2021/01/25 11:35:47;;;;;;;14.63;6.03;;;1.80;99.90;;;;;;4948036;29;20051;-79
2021/01/25 11:38:14;;;;;;;19.83;6.57;;;1.90;99.90;;;;;;4971378;28;20047;-81
2021/01/25 11:40:41;;;;;;;15.70;6.47;;;2.00;99.90;;;;;;4958292;29;20055;-78
2021/01/25 11:43:09;;;;;;;12.87;6.00;;;2.10;99.90;;;;;;4944108;29;20070;-79
2021/01/25 11:45:38;;;;;;;12.00;5.50;;;2.30;99.90;;;;;;4967474;28;20313;-80
2021/01/25 11:48:08;;;;;;;12.27;5.63;;;2.50;99.90;;;;;;4941663;29;20051;-81
2021/01/25 11:50:36;;;;;;;16.67;7.27;;;2.40;99.90;;;;;;4941419;29;20059;-80
2021/01/25 11:53:03;;;;;;;15.35;6.68;;;2.50;99.90;;;;;;4940540;29;20052;-81
2021/01/25 11:55:31;;;;;;;15.30;6.00;;;2.90;99.90;;;;;;4938816;29;20062;-81
2021/01/25 11:57:58;;;;;;;13.90;6.50;;;2.80;99.90;;;;;;4961707;29;20051;-84
2021/01/25 12:00:30;;;;;;;15.03;6.50;;;2.90;99.90;;;;;;4941618;29;20067;-84
2021/01/25 12:02:58;;;;;;;;;;;2.90;99.90;;;;;;4940543;29;20063;-83
2021/01/25 12:05:25;;;;;;;15.97;6.47;;;2.90;99.90;;;;;;4940816;29;20262;-83
2021/01/25 12:07:54;;;;;;;13.47;6.00;;;3.00;99.90;;;;;;4940550;29;20090;-83
2021/01/25 12:10:21;;;;;;;12.65;6.07;;;3.00;99.90;;;;;;4956620;29;20506;-84
2021/01/25 12:12:49;;;;;;;16.13;7.27;;;2.90;99.90;;;;;;4941134;29;20059;-83
2021/01/25 12:15:20;;;;;;;16.67;6.67;;;3.00;99.90;;;;;;4941568;29;20055;-82
2021/01/25 12:17:53;;;;;;;13.10;6.50;;;3.30;99.90;;;;;;4939916;29;20055;-87
2021/01/25 12:20:20;;;;;;;15.27;7.90;;;3.80;99.90;;;;;;4942496;29;20063;-85
2021/01/25 12:22:48;;;;;;;13.77;6.40;;;4.20;99.90;;;;;;4924764;29;20064;-84
2021/01/25 12:25:17;;;;;;;15.00;6.93;;;4.20;99.90;;;;;;4957181;29;20050;-82
2021/01/25 12:27:45;;;;;;;;;;;3.80;99.90;;;;;;4958477;29;20054;-83
2021/01/25 12:30:15;;;;;;;16.15;5.80;;;3.60;99.90;;;;;;4932005;29;19922;-84
2021/01/25 12:32:43;;;;;;;13.27;5.60;;;3.40;99.90;;;;;;4947164;29;20064;-85
2021/01/25 12:35:14;;;;;;;21.63;7.67;;;3.10;99.90;;;;;;4942627;29;20056;-82
2021/01/25 12:37:43;;;;;;;15.37;7.30;;;3.10;99.90;;;;;;4943750;29;20074;-83
2021/01/25 12:40:15;;;;;;;14.80;6.63;;;3.00;99.90;;;;;;4938799;29;20056;-83
2021/01/25 12:42:45;;;;;;;13.65;6.07;;;2.90;99.90;;;;;;4925529;29;20052;-83
2021/01/25 12:45:14;;;;;;;8.93;3.57;;;2.80;99.90;;;;;;4940592;29;20058;-82
2021/01/25 12:47:41;;;;;;;13.05;5.55;;;2.70;99.90;;;;;;4948085;29;20051;-80
2021/01/25 12:50:10;;;;;;;13.23;4.70;;;2.60;99.90;;;;;;4944486;29;20498;-82
2021/01/25 12:52:37;;;;;;;17.25;7.05;;;2.60;99.90;;;;;;4945471;29;20059;-83
2021/01/25 12:55:09;;;;;;;14.37;7.00;;;2.60;99.90;;;;;;4924593;29;20048;-82
2021/01/25 12:57:37;;;;;;;14.57;5.90;;;2.60;99.90;;;;;;4944869;29;20055;-82
2021/01/25 13:00:09;;;;;;;17.92;8.38;;;2.50;99.90;;;;;;4949729;29;20056;-84